New Boston, MI (48164)

7:03 AM EST on February 11, 2016 (GMT -0500)
Timber Creek | | Change Station
CLOSE
Current Station
Personal Weather Station
Location: Brownstown Charter Township, MI
Elevation: 615 ft
Nearby Weather Stations

Elev 615 ft 42.13 °N, 83.29 °W | Updated 16 seconds ago

Partly Cloudy
Partly Cloudy
11.5 °F
Feels Like 11 °F
N
2.0
Wind Variable Wind from NW
Gusts 2.5 mph

Today
High -- | Low -- °F
--% Chance of Precip.
Yesterday
High -- | Low -- °F
Precip. -- in
Pressure 30.17 in
Visibility 10.0 miles
Clouds Scattered Clouds 4500 ft
Mostly Cloudy 8000 ft
Mostly Cloudy 20000 ft
Windchill 11 °F
Dew Point -2 °F
Humidity 54%
Rainfall 0.00 in
Snow Depth Not available.
7:35 AM 6:00 PM
Waxing Crescent, 11% visible
METAR KDTW 111153Z 29007KT 10SM SCT045 BKN080 BKN200 M12/M16 A3013 RMK AO2 SLP216 60000 70001 T11171156 11100 21122 53017
Pressure 30.17 in
Visibility 10.0 miles
Clouds Scattered Clouds 4500 ft
Mostly Cloudy 8000 ft
Mostly Cloudy 20000 ft
Windchill 11 °F
Dew Point -2 °F
Humidity 54%
Rainfall 0.00 in
Snow Depth Not available.
7:35 AM 6:00 PM
Waxing Crescent, 11% visible
METAR KDTW 111153Z 29007KT 10SM SCT045 BKN080 BKN200 M12/M16 A3013 RMK AO2 SLP216 60000 70001 T11171156 11100 21122 53017

10-Day Weather Forecast

Almanac

Astronomy

Feb. 11, 2016 Rise Set
Actual Time
Civil Twilight
Nautical Twilight
Astronomical Twilight
Moon
Length of Visible Light
Length of Day
Tomorrow will be .
, % of the Moon is Illuminated

Today's Extremes

State Highs State Lows

Community

WunderPhotos

Upload Photos

1,892,035 photos uploaded!

WunderBlog® & News

Nearby

Air Quality

  Air Quality AQ Index Pollutant
Not available.

Snow Depth

Station Depth Elevation

Earthquake Activity

City Distance Mag. Time & Date
Minimum magnitude displayed is 2.5.

Coastal Water Temperatures

Place Temperature

Stations

Nearby Weather Stations

Station Location Temp. Windchill Dew Point Humidity Wind Precip. Elev Updated Type
                   

Watches & Warnings

There are currently no watches in effect.